sensor_id;sensor_type;location;lat;lon;timestamp;P1;durP1;ratioP1;P2;durP2;ratioP2
1509;SDS011;746;48.688;9.428;2022-08-11T00:02:27;2.90;;;2.70;;
1509;SDS011;746;48.688;9.428;2022-08-11T00:04:53;3.03;;;2.83;;
1509;SDS011;746;48.688;9.428;2022-08-11T00:07:16;3.53;;;2.83;;
1509;SDS011;746;48.688;9.428;2022-08-11T00:09:49;3.40;;;3.10;;
1509;SDS011;746;48.688;9.428;2022-08-11T00:12:13;3.00;;;2.70;;
1509;SDS011;746;48.688;9.428;2022-08-11T00:14:37;3.07;;;2.87;;
1509;SDS011;746;48.688;9.428;2022-08-11T00:16:59;3.40;;;3.10;;
1509;SDS011;746;48.688;9.428;2022-08-11T00:19:23;4.17;;;3.23;;
1509;SDS011;746;48.688;9.428;2022-08-11T00:22:19;4.50;;;3.33;;
1509;SDS011;746;48.688;9.428;2022-08-11T00:24:41;3.53;;;3.33;;
1509;SDS011;746;48.688;9.428;2022-08-11T00:27:16;3.10;;;2.90;;
1509;SDS011;746;48.688;9.428;2022-08-11T00:29:38;3.40;;;3.20;;
1509;SDS011;746;48.688;9.428;2022-08-11T00:32:12;3.03;;;2.83;;
1509;SDS011;746;48.688;9.428;2022-08-11T00:34:35;4.30;;;3.43;;
1509;SDS011;746;48.688;9.428;2022-08-11T00:36:59;2.93;;;2.73;;
1509;SDS011;746;48.688;9.428;2022-08-11T00:39:22;3.27;;;3.00;;
1509;SDS011;746;48.688;9.428;2022-08-11T00:41:54;2.87;;;2.77;;
1509;SDS011;746;48.688;9.428;2022-08-11T00:44:36;3.30;;;3.00;;
1509;SDS011;746;48.688;9.428;2022-08-11T00:47:09;3.97;;;2.80;;
1509;SDS011;746;48.688;9.428;2022-08-11T00:49:40;3.10;;;2.90;;
1509;SDS011;746;48.688;9.428;2022-08-11T00:52:09;2.93;;;2.73;;
1509;SDS011;746;48.688;9.428;2022-08-11T00:54:57;3.13;;;2.90;;
1509;SDS011;746;48.688;9.428;2022-08-11T01:00:19;3.23;;;2.90;;
1509;SDS011;746;48.688;9.428;2022-08-11T01:05:44;3.43;;;3.10;;
1509;SDS011;746;48.688;9.428;2022-08-11T01:08:40;3.40;;;3.10;;
1509;SDS011;746;48.688;9.428;2022-08-11T01:11:45;3.60;;;3.30;;
1509;SDS011;746;48.688;9.428;2022-08-11T01:14:23;3.03;;;2.80;;
1509;SDS011;746;48.688;9.428;2022-08-11T01:17:02;3.60;;;3.40;;
1509;SDS011;746;48.688;9.428;2022-08-11T01:19:46;4.13;;;3.20;;
1509;SDS011;746;48.688;9.428;2022-08-11T01:22:59;3.80;;;3.47;;
1509;SDS011;746;48.688;9.428;2022-08-11T01:31:46;3.17;;;3.00;;
1509;SDS011;746;48.688;9.428;2022-08-11T01:37:20;3.60;;;3.30;;
1509;SDS011;746;48.688;9.428;2022-08-11T01:40:18;3.90;;;3.50;;
1509;SDS011;746;48.688;9.428;2022-08-11T01:46:11;4.03;;;3.30;;
1509;SDS011;746;48.688;9.428;2022-08-11T01:48:35;3.60;;;3.30;;
1509;SDS011;746;48.688;9.428;2022-08-11T01:51:04;3.43;;;3.23;;
1509;SDS011;746;48.688;9.428;2022-08-11T01:53:38;3.17;;;2.97;;
1509;SDS011;746;48.688;9.428;2022-08-11T01:56:12;3.73;;;3.53;;
1509;SDS011;746;48.688;9.428;2022-08-11T01:58:58;3.50;;;3.30;;
1509;SDS011;746;48.688;9.428;2022-08-11T02:01:27;3.73;;;3.43;;
1509;SDS011;746;48.688;9.428;2022-08-11T02:04:06;3.67;;;3.47;;
1509;SDS011;746;48.688;9.428;2022-08-11T02:06:38;4.03;;;3.73;;
1509;SDS011;746;48.688;9.428;2022-08-11T02:09:19;3.73;;;3.53;;
1509;SDS011;746;48.688;9.428;2022-08-11T02:11:51;3.83;;;3.53;;
1509;SDS011;746;48.688;9.428;2022-08-11T02:14:19;5.63;;;3.90;;
1509;SDS011;746;48.688;9.428;2022-08-11T02:19:32;3.60;;;3.30;;
1509;SDS011;746;48.688;9.428;2022-08-11T02:22:21;4.90;;;3.43;;
1509;SDS011;746;48.688;9.428;2022-08-11T02:25:03;3.57;;;3.30;;
1509;SDS011;746;48.688;9.428;2022-08-11T02:27:31;3.67;;;3.40;;
1509;SDS011;746;48.688;9.428;2022-08-11T02:29:59;3.63;;;3.27;;
1509;SDS011;746;48.688;9.428;2022-08-11T02:32:28;3.50;;;3.30;;
1509;SDS011;746;48.688;9.428;2022-08-11T02:35:13;4.50;;;3.67;;
1509;SDS011;746;48.688;9.428;2022-08-11T02:37:45;5.43;;;4.10;;
1509;SDS011;746;48.688;9.428;2022-08-11T02:40:15;7.30;;;5.30;;
1509;SDS011;746;48.688;9.428;2022-08-11T02:42:41;5.73;;;4.20;;
1509;SDS011;746;48.688;9.428;2022-08-11T02:45:16;5.10;;;4.17;;
1509;SDS011;746;48.688;9.428;2022-08-11T02:47:57;4.20;;;3.80;;
1509;SDS011;746;48.688;9.428;2022-08-11T02:50:57;4.27;;;3.87;;
1509;SDS011;746;48.688;9.428;2022-08-11T02:53:24;4.73;;;3.80;;
1509;SDS011;746;48.688;9.428;2022-08-11T02:55:52;5.27;;;4.07;;
1509;SDS011;746;48.688;9.428;2022-08-11T02:58:20;4.00;;;3.77;;
1509;SDS011;746;48.688;9.428;2022-08-11T03:00:54;4.53;;;3.90;;
1509;SDS011;746;48.688;9.428;2022-08-11T03:03:22;4.23;;;3.93;;
1509;SDS011;746;48.688;9.428;2022-08-11T03:05:51;4.60;;;4.03;;
1509;SDS011;746;48.688;9.428;2022-08-11T03:11:02;4.20;;;3.73;;
1509;SDS011;746;48.688;9.428;2022-08-11T03:13:52;4.10;;;3.70;;
1509;SDS011;746;48.688;9.428;2022-08-11T03:16:36;4.20;;;3.90;;
1509;SDS011;746;48.688;9.428;2022-08-11T03:19:10;4.33;;;4.03;;
1509;SDS011;746;48.688;9.428;2022-08-11T03:21:42;4.20;;;3.90;;
1509;SDS011;746;48.688;9.428;2022-08-11T03:24:24;4.23;;;3.90;;
1509;SDS011;746;48.688;9.428;2022-08-11T03:26:55;4.00;;;3.70;;
1509;SDS011;746;48.688;9.428;2022-08-11T03:29:27;4.60;;;4.30;;
1509;SDS011;746;48.688;9.428;2022-08-11T03:31:54;3.80;;;3.60;;
1509;SDS011;746;48.688;9.428;2022-08-11T03:34:21;4.50;;;4.10;;
1509;SDS011;746;48.688;9.428;2022-08-11T03:39:41;3.87;;;3.57;;
1509;SDS011;746;48.688;9.428;2022-08-11T03:42:19;4.20;;;3.90;;
1509;SDS011;746;48.688;9.428;2022-08-11T03:44:51;4.70;;;4.13;;
1509;SDS011;746;48.688;9.428;2022-08-11T03:47:25;4.67;;;4.37;;
1509;SDS011;746;48.688;9.428;2022-08-11T03:50:15;4.53;;;4.13;;
1509;SDS011;746;48.688;9.428;2022-08-11T03:52:50;4.43;;;4.13;;
1509;SDS011;746;48.688;9.428;2022-08-11T03:55:30;4.40;;;4.00;;
1509;SDS011;746;48.688;9.428;2022-08-11T04:01:07;4.83;;;3.80;;
1509;SDS011;746;48.688;9.428;2022-08-11T04:03:42;4.50;;;4.20;;
1509;SDS011;746;48.688;9.428;2022-08-11T04:06:18;4.67;;;4.30;;
1509;SDS011;746;48.688;9.428;2022-08-11T04:18:09;4.73;;;4.40;;
1509;SDS011;746;48.688;9.428;2022-08-11T04:20:46;4.17;;;3.97;;
1509;SDS011;746;48.688;9.428;2022-08-11T04:23:17;5.17;;;4.70;;
1509;SDS011;746;48.688;9.428;2022-08-11T04:26:11;5.10;;;4.70;;
1509;SDS011;746;48.688;9.428;2022-08-11T04:28:49;4.73;;;4.43;;
1509;SDS011;746;48.688;9.428;2022-08-11T04:34:20;4.40;;;4.00;;
1509;SDS011;746;48.688;9.428;2022-08-11T04:37:09;4.90;;;4.50;;
1509;SDS011;746;48.688;9.428;2022-08-11T04:43:05;5.07;;;4.67;;
1509;SDS011;746;48.688;9.428;2022-08-11T04:51:59;5.03;;;4.07;;
1509;SDS011;746;48.688;9.428;2022-08-11T04:55:01;5.50;;;4.33;;
1509;SDS011;746;48.688;9.428;2022-08-11T04:57:58;5.07;;;4.63;;
1509;SDS011;746;48.688;9.428;2022-08-11T05:00:51;4.90;;;4.40;;
1509;SDS011;746;48.688;9.428;2022-08-11T05:03:38;4.70;;;4.30;;
1509;SDS011;746;48.688;9.428;2022-08-11T05:06:27;4.63;;;4.33;;
1509;SDS011;746;48.688;9.428;2022-08-11T05:09:18;5.10;;;4.70;;
1509;SDS011;746;48.688;9.428;2022-08-11T05:14:28;5.53;;;5.03;;
1509;SDS011;746;48.688;9.428;2022-08-11T05:17:12;5.23;;;4.83;;
1509;SDS011;746;48.688;9.428;2022-08-11T05:19:52;5.07;;;4.70;;
1509;SDS011;746;48.688;9.428;2022-08-11T05:22:31;5.70;;;5.23;;
1509;SDS011;746;48.688;9.428;2022-08-11T05:25:14;5.57;;;5.17;;
1509;SDS011;746;48.688;9.428;2022-08-11T05:28:18;7.03;;;5.00;;
1509;SDS011;746;48.688;9.428;2022-08-11T05:31:13;6.03;;;4.57;;
1509;SDS011;746;48.688;9.428;2022-08-11T05:33:56;5.03;;;4.73;;
1509;SDS011;746;48.688;9.428;2022-08-11T05:36:38;5.20;;;4.80;;
1509;SDS011;746;48.688;9.428;2022-08-11T05:39:04;5.47;;;5.07;;
1509;SDS011;746;48.688;9.428;2022-08-11T05:41:57;5.50;;;5.10;;
1509;SDS011;746;48.688;9.428;2022-08-11T05:44:49;5.70;;;5.20;;
1509;SDS011;746;48.688;9.428;2022-08-11T05:48:05;5.77;;;5.27;;
1509;SDS011;746;48.688;9.428;2022-08-11T05:50:49;5.60;;;5.20;;
1509;SDS011;746;48.688;9.428;2022-08-11T05:53:29;5.60;;;5.20;;
1509;SDS011;746;48.688;9.428;2022-08-11T05:56:09;6.87;;;5.40;;
1509;SDS011;746;48.688;9.428;2022-08-11T05:58:38;6.00;;;5.40;;
1509;SDS011;746;48.688;9.428;2022-08-11T06:01:02;5.30;;;4.80;;
1509;SDS011;746;48.688;9.428;2022-08-11T06:03:25;5.40;;;4.90;;
1509;SDS011;746;48.688;9.428;2022-08-11T06:06:17;5.23;;;4.73;;
1509;SDS011;746;48.688;9.428;2022-08-11T06:08:40;5.23;;;4.83;;
1509;SDS011;746;48.688;9.428;2022-08-11T06:11:04;5.10;;;4.80;;
1509;SDS011;746;48.688;9.428;2022-08-11T06:13:26;6.13;;;4.70;;
1509;SDS011;746;48.688;9.428;2022-08-11T06:15:50;5.90;;;4.60;;
1509;SDS011;746;48.688;9.428;2022-08-11T06:18:11;4.63;;;4.33;;
1509;SDS011;746;48.688;9.428;2022-08-11T06:20:34;4.80;;;4.10;;
1509;SDS011;746;48.688;9.428;2022-08-11T06:23:06;4.77;;;3.93;;
1509;SDS011;746;48.688;9.428;2022-08-11T06:25:31;4.57;;;4.17;;
1509;SDS011;746;48.688;9.428;2022-08-11T06:27:54;4.40;;;4.00;;
1509;SDS011;746;48.688;9.428;2022-08-11T06:30:17;4.37;;;3.97;;
1509;SDS011;746;48.688;9.428;2022-08-11T06:32:43;4.00;;;3.63;;
1509;SDS011;746;48.688;9.428;2022-08-11T06:35:17;4.07;;;3.53;;
1509;SDS011;746;48.688;9.428;2022-08-11T06:38:04;3.90;;;3.57;;
1509;SDS011;746;48.688;9.428;2022-08-11T06:40:32;4.00;;;3.70;;
1509;SDS011;746;48.688;9.428;2022-08-11T06:42:55;5.50;;;3.70;;
1509;SDS011;746;48.688;9.428;2022-08-11T06:45:23;4.43;;;3.63;;
1509;SDS011;746;48.688;9.428;2022-08-11T06:47:48;4.07;;;3.77;;
1509;SDS011;746;48.688;9.428;2022-08-11T06:50:09;4.07;;;3.70;;
1509;SDS011;746;48.688;9.428;2022-08-11T06:52:58;4.73;;;4.00;;
1509;SDS011;746;48.688;9.428;2022-08-11T06:55:20;4.20;;;3.90;;
1509;SDS011;746;48.688;9.428;2022-08-11T06:58:17;5.43;;;3.70;;
1509;SDS011;746;48.688;9.428;2022-08-11T07:00:57;4.03;;;3.73;;
1509;SDS011;746;48.688;9.428;2022-08-11T07:03:23;4.03;;;3.60;;
1509;SDS011;746;48.688;9.428;2022-08-11T07:05:46;4.10;;;3.80;;
1509;SDS011;746;48.688;9.428;2022-08-11T07:08:25;3.67;;;3.47;;
1509;SDS011;746;48.688;9.428;2022-08-11T07:14:52;7.53;;;3.63;;
1509;SDS011;746;48.688;9.428;2022-08-11T07:17:34;4.20;;;3.90;;
1509;SDS011;746;48.688;9.428;2022-08-11T07:20:00;4.20;;;3.80;;
1509;SDS011;746;48.688;9.428;2022-08-11T07:22:40;5.87;;;3.80;;
1509;SDS011;746;48.688;9.428;2022-08-11T07:25:40;3.87;;;3.57;;
1509;SDS011;746;48.688;9.428;2022-08-11T07:28:21;4.40;;;4.10;;
1509;SDS011;746;48.688;9.428;2022-08-11T07:31:03;4.63;;;3.87;;
1509;SDS011;746;48.688;9.428;2022-08-11T07:33:29;3.60;;;3.30;;
1509;SDS011;746;48.688;9.428;2022-08-11T07:36:16;4.23;;;3.83;;
1509;SDS011;746;48.688;9.428;2022-08-11T07:38:57;3.77;;;3.50;;
1509;SDS011;746;48.688;9.428;2022-08-11T07:41:21;4.10;;;3.70;;
1509;SDS011;746;48.688;9.428;2022-08-11T07:44:25;5.83;;;3.73;;
1509;SDS011;746;48.688;9.428;2022-08-11T07:46:54;4.80;;;3.77;;
1509;SDS011;746;48.688;9.428;2022-08-11T07:49:34;4.13;;;3.73;;
1509;SDS011;746;48.688;9.428;2022-08-11T07:52:16;4.60;;;3.90;;
1509;SDS011;746;48.688;9.428;2022-08-11T07:55:02;4.93;;;3.73;;
1509;SDS011;746;48.688;9.428;2022-08-11T07:58:05;3.77;;;3.43;;
1509;SDS011;746;48.688;9.428;2022-08-11T08:01:16;5.47;;;3.80;;
1509;SDS011;746;48.688;9.428;2022-08-11T08:03:57;4.47;;;3.90;;
1509;SDS011;746;48.688;9.428;2022-08-11T08:06:57;3.97;;;3.67;;
1509;SDS011;746;48.688;9.428;2022-08-11T08:09:37;3.90;;;3.60;;
1509;SDS011;746;48.688;9.428;2022-08-11T08:12:19;3.87;;;3.53;;
1509;SDS011;746;48.688;9.428;2022-08-11T08:14:58;4.47;;;3.70;;
1509;SDS011;746;48.688;9.428;2022-08-11T08:17:39;4.70;;;3.60;;
1509;SDS011;746;48.688;9.428;2022-08-11T08:20:33;3.93;;;3.70;;
1509;SDS011;746;48.688;9.428;2022-08-11T08:22:57;4.20;;;3.80;;
1509;SDS011;746;48.688;9.428;2022-08-11T08:25:21;4.40;;;3.40;;
1509;SDS011;746;48.688;9.428;2022-08-11T08:27:44;3.53;;;3.23;;
1509;SDS011;746;48.688;9.428;2022-08-11T08:30:08;4.40;;;3.53;;
1509;SDS011;746;48.688;9.428;2022-08-11T08:32:47;4.10;;;3.50;;
1509;SDS011;746;48.688;9.428;2022-08-11T08:35:31;4.20;;;3.80;;
1509;SDS011;746;48.688;9.428;2022-08-11T08:38:30;5.37;;;3.60;;
1509;SDS011;746;48.688;9.428;2022-08-11T08:40:57;4.03;;;3.50;;
1509;SDS011;746;48.688;9.428;2022-08-11T08:43:27;5.63;;;3.57;;
1509;SDS011;746;48.688;9.428;2022-08-11T08:46:08;3.30;;;3.00;;
1509;SDS011;746;48.688;9.428;2022-08-11T08:48:38;3.40;;;3.10;;
1509;SDS011;746;48.688;9.428;2022-08-11T08:51:12;3.20;;;3.00;;
1509;SDS011;746;48.688;9.428;2022-08-11T08:54:16;3.23;;;3.03;;
1509;SDS011;746;48.688;9.428;2022-08-11T08:56:41;3.33;;;3.13;;
1509;SDS011;746;48.688;9.428;2022-08-11T08:59:04;3.40;;;3.20;;
1509;SDS011;746;48.688;9.428;2022-08-11T09:01:26;3.47;;;3.27;;
1509;SDS011;746;48.688;9.428;2022-08-11T09:03:50;3.50;;;3.20;;
1509;SDS011;746;48.688;9.428;2022-08-11T09:06:28;3.40;;;3.20;;
1509;SDS011;746;48.688;9.428;2022-08-11T09:08:53;4.63;;;3.50;;
1509;SDS011;746;48.688;9.428;2022-08-11T09:11:35;3.87;;;3.00;;
1509;SDS011;746;48.688;9.428;2022-08-11T09:14:20;3.53;;;2.80;;
1509;SDS011;746;48.688;9.428;2022-08-11T09:17:22;3.10;;;2.90;;
1509;SDS011;746;48.688;9.428;2022-08-11T09:19:51;3.47;;;3.27;;
1509;SDS011;746;48.688;9.428;2022-08-11T09:22:20;3.20;;;2.90;;
1509;SDS011;746;48.688;9.428;2022-08-11T09:25:05;3.60;;;3.30;;
1509;SDS011;746;48.688;9.428;2022-08-11T09:28:10;3.30;;;3.00;;
1509;SDS011;746;48.688;9.428;2022-08-11T09:30:53;3.43;;;3.00;;
1509;SDS011;746;48.688;9.428;2022-08-11T09:33:16;3.23;;;3.03;;
1509;SDS011;746;48.688;9.428;2022-08-11T09:35:37;2.77;;;2.67;;
1509;SDS011;746;48.688;9.428;2022-08-11T09:38:42;3.10;;;2.80;;
1509;SDS011;746;48.688;9.428;2022-08-11T09:41:26;3.63;;;2.90;;
1509;SDS011;746;48.688;9.428;2022-08-11T09:44:23;3.10;;;2.90;;
1509;SDS011;746;48.688;9.428;2022-08-11T09:47:10;3.70;;;3.40;;
1509;SDS011;746;48.688;9.428;2022-08-11T09:50:04;3.40;;;3.10;;
1509;SDS011;746;48.688;9.428;2022-08-11T09:53:24;3.93;;;2.90;;
1509;SDS011;746;48.688;9.428;2022-08-11T09:56:44;3.60;;;2.77;;
1509;SDS011;746;48.688;9.428;2022-08-11T09:59:38;3.40;;;2.93;;
1509;SDS011;746;48.688;9.428;2022-08-11T10:02:59;3.37;;;3.07;;
1509;SDS011;746;48.688;9.428;2022-08-11T10:05:59;3.00;;;2.80;;
1509;SDS011;746;48.688;9.428;2022-08-11T10:09:00;3.33;;;3.10;;
1509;SDS011;746;48.688;9.428;2022-08-11T10:11:34;3.00;;;2.80;;
1509;SDS011;746;48.688;9.428;2022-08-11T10:14:17;3.13;;;2.93;;
1509;SDS011;746;48.688;9.428;2022-08-11T10:17:57;2.80;;;2.67;;
1509;SDS011;746;48.688;9.428;2022-08-11T10:20:59;2.97;;;2.77;;
1509;SDS011;746;48.688;9.428;2022-08-11T10:24:37;6.20;;;3.00;;
1509;SDS011;746;48.688;9.428;2022-08-11T10:28:18;2.57;;;2.37;;
1509;SDS011;746;48.688;9.428;2022-08-11T10:31:57;2.93;;;2.40;;
1509;SDS011;746;48.688;9.428;2022-08-11T10:34:50;3.37;;;2.50;;
1509;SDS011;746;48.688;9.428;2022-08-11T10:38:11;3.03;;;2.40;;
1509;SDS011;746;48.688;9.428;2022-08-11T10:40:59;2.53;;;2.30;;
1509;SDS011;746;48.688;9.428;2022-08-11T10:43:39;2.83;;;2.63;;
1509;SDS011;746;48.688;9.428;2022-08-11T10:46:21;2.90;;;2.70;;
1509;SDS011;746;48.688;9.428;2022-08-11T10:49:55;2.83;;;2.50;;
1509;SDS011;746;48.688;9.428;2022-08-11T10:53:54;2.53;;;2.40;;
1509;SDS011;746;48.688;9.428;2022-08-11T10:57:32;2.47;;;2.30;;
1509;SDS011;746;48.688;9.428;2022-08-11T11:01:11;2.70;;;2.30;;
1509;SDS011;746;48.688;9.428;2022-08-11T11:04:37;2.70;;;2.30;;
1509;SDS011;746;48.688;9.428;2022-08-11T11:08:19;2.47;;;2.30;;
1509;SDS011;746;48.688;9.428;2022-08-11T11:11:42;2.90;;;2.20;;
1509;SDS011;746;48.688;9.428;2022-08-11T11:15:21;2.60;;;2.40;;
1509;SDS011;746;48.688;9.428;2022-08-11T11:19:00;2.87;;;2.67;;
1509;SDS011;746;48.688;9.428;2022-08-11T11:22:24;2.57;;;2.30;;
1509;SDS011;746;48.688;9.428;2022-08-11T11:25:53;2.43;;;2.30;;
1509;SDS011;746;48.688;9.428;2022-08-11T11:33:03;2.53;;;2.43;;
1509;SDS011;746;48.688;9.428;2022-08-11T11:36:36;2.63;;;2.30;;
1509;SDS011;746;48.688;9.428;2022-08-11T11:40:21;2.17;;;2.07;;
1509;SDS011;746;48.688;9.428;2022-08-11T11:43:45;2.30;;;2.10;;
1509;SDS011;746;48.688;9.428;2022-08-11T11:47:06;2.40;;;2.30;;
1509;SDS011;746;48.688;9.428;2022-08-11T11:50:26;2.40;;;2.20;;
1509;SDS011;746;48.688;9.428;2022-08-11T11:53:48;2.20;;;2.00;;
1509;SDS011;746;48.688;9.428;2022-08-11T11:57:10;3.10;;;2.33;;
1509;SDS011;746;48.688;9.428;2022-08-11T12:00:21;2.20;;;2.10;;
1509;SDS011;746;48.688;9.428;2022-08-11T12:03:44;2.80;;;2.17;;
1509;SDS011;746;48.688;9.428;2022-08-11T12:06:48;2.60;;;2.40;;
1509;SDS011;746;48.688;9.428;2022-08-11T12:10:33;2.30;;;2.10;;
1509;SDS011;746;48.688;9.428;2022-08-11T12:14:03;2.93;;;2.20;;
1509;SDS011;746;48.688;9.428;2022-08-11T12:16:30;2.17;;;2.07;;
1509;SDS011;746;48.688;9.428;2022-08-11T12:18:57;5.50;;;2.10;;
1509;SDS011;746;48.688;9.428;2022-08-11T12:21:19;2.30;;;2.10;;
1509;SDS011;746;48.688;9.428;2022-08-11T12:23:42;3.43;;;2.03;;
1509;SDS011;746;48.688;9.428;2022-08-11T12:26:25;3.83;;;2.00;;
1509;SDS011;746;48.688;9.428;2022-08-11T12:29:46;2.43;;;2.30;;
1509;SDS011;746;48.688;9.428;2022-08-11T12:33:12;2.17;;;1.97;;
1509;SDS011;746;48.688;9.428;2022-08-11T12:36:34;2.93;;;2.20;;
1509;SDS011;746;48.688;9.428;2022-08-11T12:39:57;2.50;;;2.30;;
1509;SDS011;746;48.688;9.428;2022-08-11T12:43:37;2.50;;;2.10;;
1509;SDS011;746;48.688;9.428;2022-08-11T12:47:19;2.33;;;2.23;;
1509;SDS011;746;48.688;9.428;2022-08-11T12:50:30;2.33;;;2.00;;
1509;SDS011;746;48.688;9.428;2022-08-11T12:54:33;2.27;;;1.87;;
1509;SDS011;746;48.688;9.428;2022-08-11T12:58:23;2.60;;;1.93;;
1509;SDS011;746;48.688;9.428;2022-08-11T13:02:03;2.03;;;1.90;;
1509;SDS011;746;48.688;9.428;2022-08-11T13:05:41;2.00;;;1.90;;
1509;SDS011;746;48.688;9.428;2022-08-11T13:09:02;3.90;;;1.90;;
1509;SDS011;746;48.688;9.428;2022-08-11T13:12:23;2.70;;;1.90;;
1509;SDS011;746;48.688;9.428;2022-08-11T13:16:04;2.30;;;1.93;;
1509;SDS011;746;48.688;9.428;2022-08-11T13:20:03;3.13;;;2.20;;
1509;SDS011;746;48.688;9.428;2022-08-11T13:23:25;2.80;;;2.10;;
1509;SDS011;746;48.688;9.428;2022-08-11T13:26:47;2.37;;;2.17;;
1509;SDS011;746;48.688;9.428;2022-08-11T13:30:08;2.20;;;2.10;;
1509;SDS011;746;48.688;9.428;2022-08-11T13:33:34;4.40;;;1.90;;
1509;SDS011;746;48.688;9.428;2022-08-11T13:37:00;3.17;;;2.00;;
1509;SDS011;746;48.688;9.428;2022-08-11T13:40:38;4.83;;;1.93;;
1509;SDS011;746;48.688;9.428;2022-08-11T13:44:00;3.13;;;2.40;;
1509;SDS011;746;48.688;9.428;2022-08-11T13:47:22;2.30;;;2.10;;
1509;SDS011;746;48.688;9.428;2022-08-11T13:50:43;2.73;;;2.37;;
1509;SDS011;746;48.688;9.428;2022-08-11T13:54:05;4.53;;;2.20;;
1509;SDS011;746;48.688;9.428;2022-08-11T13:57:26;2.33;;;2.13;;
1509;SDS011;746;48.688;9.428;2022-08-11T14:01:00;4.47;;;2.00;;
1509;SDS011;746;48.688;9.428;2022-08-11T14:04:45;2.30;;;2.13;;
1509;SDS011;746;48.688;9.428;2022-08-11T14:08:09;2.23;;;2.03;;
1509;SDS011;746;48.688;9.428;2022-08-11T14:11:31;2.23;;;2.03;;
1509;SDS011;746;48.688;9.428;2022-08-11T14:15:12;3.97;;;2.17;;
1509;SDS011;746;48.688;9.428;2022-08-11T14:18:05;2.30;;;2.10;;
1509;SDS011;746;48.688;9.428;2022-08-11T14:21:29;3.27;;;2.10;;
1509;SDS011;746;48.688;9.428;2022-08-11T14:24:49;2.00;;;1.90;;
1509;SDS011;746;48.688;9.428;2022-08-11T14:28:28;2.43;;;2.30;;
1509;SDS011;746;48.688;9.428;2022-08-11T14:32:02;2.33;;;2.20;;
1509;SDS011;746;48.688;9.428;2022-08-11T14:35:36;2.83;;;2.10;;
1509;SDS011;746;48.688;9.428;2022-08-11T14:38:58;3.37;;;2.37;;
1509;SDS011;746;48.688;9.428;2022-08-11T14:42:41;2.30;;;2.10;;
1509;SDS011;746;48.688;9.428;2022-08-11T14:46:33;5.38;;;2.20;;
1509;SDS011;746;48.688;9.428;2022-08-11T14:49:44;2.30;;;2.10;;
1509;SDS011;746;48.688;9.428;2022-08-11T14:53:07;2.38;;;2.17;;
1509;SDS011;746;48.688;9.428;2022-08-11T14:56:46;3.17;;;2.15;;
1509;SDS011;746;48.688;9.428;2022-08-11T15:00:15;2.45;;;2.20;;
1509;SDS011;746;48.688;9.428;2022-08-11T15:02:58;2.55;;;2.35;;
1509;SDS011;746;48.688;9.428;2022-08-11T15:06:38;2.20;;;2.10;;
1509;SDS011;746;48.688;9.428;2022-08-11T15:10:00;2.00;;;1.88;;
1509;SDS011;746;48.688;9.428;2022-08-11T15:13:40;3.05;;;2.28;;
1509;SDS011;746;48.688;9.428;2022-08-11T15:17:20;2.20;;;2.10;;
1509;SDS011;746;48.688;9.428;2022-08-11T15:20:43;2.35;;;2.25;;
1509;SDS011;746;48.688;9.428;2022-08-11T15:24:20;3.03;;;2.10;;
1509;SDS011;746;48.688;9.428;2022-08-11T15:27:42;2.53;;;2.33;;
1509;SDS011;746;48.688;9.428;2022-08-11T15:31:24;2.90;;;2.30;;
1509;SDS011;746;48.688;9.428;2022-08-11T15:35:02;3.80;;;2.67;;
1509;SDS011;746;48.688;9.428;2022-08-11T15:38:00;2.45;;;2.25;;
1509;SDS011;746;48.688;9.428;2022-08-11T15:41:27;3.42;;;2.22;;
1509;SDS011;746;48.688;9.428;2022-08-11T15:44:48;2.58;;;2.38;;
1509;SDS011;746;48.688;9.428;2022-08-11T15:47:33;5.30;;;2.28;;
1509;SDS011;746;48.688;9.428;2022-08-11T15:51:01;3.20;;;2.22;;
1509;SDS011;746;48.688;9.428;2022-08-11T15:54:25;2.53;;;2.33;;
1509;SDS011;746;48.688;9.428;2022-08-11T15:57:50;2.35;;;2.10;;
1509;SDS011;746;48.688;9.428;2022-08-11T16:00:58;2.50;;;2.20;;
1509;SDS011;746;48.688;9.428;2022-08-11T16:04:46;2.28;;;2.08;;
1509;SDS011;746;48.688;9.428;2022-08-11T16:08:12;3.30;;;2.40;;
1509;SDS011;746;48.688;9.428;2022-08-11T16:11:38;2.33;;;2.17;;
1509;SDS011;746;48.688;9.428;2022-08-11T16:15:02;5.22;;;2.17;;
1509;SDS011;746;48.688;9.428;2022-08-11T16:18:40;3.53;;;2.20;;
1509;SDS011;746;48.688;9.428;2022-08-11T16:22:02;3.33;;;2.17;;
1509;SDS011;746;48.688;9.428;2022-08-11T16:25:24;4.78;;;2.25;;
1509;SDS011;746;48.688;9.428;2022-08-11T16:29:05;2.20;;;2.10;;
1509;SDS011;746;48.688;9.428;2022-08-11T16:32:29;2.20;;;2.10;;
1509;SDS011;746;48.688;9.428;2022-08-11T16:36:08;5.70;;;2.30;;
1509;SDS011;746;48.688;9.428;2022-08-11T16:39:57;2.35;;;2.15;;
1509;SDS011;746;48.688;9.428;2022-08-11T16:43:18;3.33;;;2.25;;
1509;SDS011;746;48.688;9.428;2022-08-11T16:46:59;2.00;;;1.90;;
1509;SDS011;746;48.688;9.428;2022-08-11T16:50:40;1.95;;;1.85;;
1509;SDS011;746;48.688;9.428;2022-08-11T16:54:01;2.35;;;2.15;;
1509;SDS011;746;48.688;9.428;2022-08-11T16:57:24;3.88;;;2.00;;
1509;SDS011;746;48.688;9.428;2022-08-11T17:01:02;2.17;;;2.00;;
1509;SDS011;746;48.688;9.428;2022-08-11T17:04:27;2.55;;;2.20;;
1509;SDS011;746;48.688;9.428;2022-08-11T17:08:13;3.45;;;2.40;;
1509;SDS011;746;48.688;9.428;2022-08-11T17:11:54;1.75;;;1.75;;
1509;SDS011;746;48.688;9.428;2022-08-11T17:15:30;2.30;;;2.10;;
1509;SDS011;746;48.688;9.428;2022-08-11T17:18:56;2.22;;;2.13;;
1509;SDS011;746;48.688;9.428;2022-08-11T17:22:37;2.20;;;2.10;;
1509;SDS011;746;48.688;9.428;2022-08-11T17:26:08;2.05;;;1.95;;
1509;SDS011;746;48.688;9.428;2022-08-11T17:29:31;2.35;;;2.25;;
1509;SDS011;746;48.688;9.428;2022-08-11T17:33:06;2.28;;;2.10;;
1509;SDS011;746;48.688;9.428;2022-08-11T17:36:47;3.60;;;2.20;;
1509;SDS011;746;48.688;9.428;2022-08-11T17:39:24;2.28;;;2.05;;
1509;SDS011;746;48.688;9.428;2022-08-11T17:42:45;6.22;;;2.38;;
1509;SDS011;746;48.688;9.428;2022-08-11T17:46:23;2.90;;;2.20;;
1509;SDS011;746;48.688;9.428;2022-08-11T17:50:03;5.53;;;2.10;;
1509;SDS011;746;48.688;9.428;2022-08-11T17:53:26;2.22;;;2.15;;
1509;SDS011;746;48.688;9.428;2022-08-11T17:57:05;3.17;;;1.98;;
1509;SDS011;746;48.688;9.428;2022-08-11T18:00:43;2.40;;;2.20;;
1509;SDS011;746;48.688;9.428;2022-08-11T18:04:04;2.27;;;2.07;;
1509;SDS011;746;48.688;9.428;2022-08-11T18:07:32;2.27;;;2.00;;
1509;SDS011;746;48.688;9.428;2022-08-11T18:11:11;2.17;;;1.93;;
1509;SDS011;746;48.688;9.428;2022-08-11T18:14:49;2.63;;;2.40;;
1509;SDS011;746;48.688;9.428;2022-08-11T18:18:27;2.50;;;2.33;;
1509;SDS011;746;48.688;9.428;2022-08-11T18:22:07;2.00;;;1.90;;
1509;SDS011;746;48.688;9.428;2022-08-11T18:26:05;3.43;;;2.07;;
1509;SDS011;746;48.688;9.428;2022-08-11T18:29:42;2.20;;;2.10;;
1509;SDS011;746;48.688;9.428;2022-08-11T18:33:26;3.70;;;3.20;;
1509;SDS011;746;48.688;9.428;2022-08-11T18:37:10;3.27;;;2.23;;
1509;SDS011;746;48.688;9.428;2022-08-11T18:40:54;2.87;;;2.30;;
1509;SDS011;746;48.688;9.428;2022-08-11T18:44:38;2.43;;;2.10;;
1509;SDS011;746;48.688;9.428;2022-08-11T18:48:26;3.57;;;2.20;;
1509;SDS011;746;48.688;9.428;2022-08-11T18:52:26;6.03;;;2.60;;
1509;SDS011;746;48.688;9.428;2022-08-11T18:56:05;2.30;;;2.20;;
1509;SDS011;746;48.688;9.428;2022-08-11T18:59:42;2.63;;;2.20;;
1509;SDS011;746;48.688;9.428;2022-08-11T19:03:21;6.20;;;2.50;;
1509;SDS011;746;48.688;9.428;2022-08-11T19:06:59;2.70;;;2.50;;
1509;SDS011;746;48.688;9.428;2022-08-11T19:10:41;2.53;;;2.33;;
1509;SDS011;746;48.688;9.428;2022-08-11T19:14:20;2.50;;;2.30;;
1509;SDS011;746;48.688;9.428;2022-08-11T19:17:58;2.90;;;2.57;;
1509;SDS011;746;48.688;9.428;2022-08-11T19:21:36;2.80;;;2.60;;
1509;SDS011;746;48.688;9.428;2022-08-11T19:25:15;2.60;;;2.40;;
1509;SDS011;746;48.688;9.428;2022-08-11T19:28:53;2.57;;;2.37;;
1509;SDS011;746;48.688;9.428;2022-08-11T19:32:33;2.73;;;2.47;;
1509;SDS011;746;48.688;9.428;2022-08-11T19:36:29;3.23;;;2.57;;
1509;SDS011;746;48.688;9.428;2022-08-11T19:40:08;3.57;;;2.47;;
1509;SDS011;746;48.688;9.428;2022-08-11T19:44:07;2.57;;;2.37;;
1509;SDS011;746;48.688;9.428;2022-08-11T19:47:45;4.00;;;2.90;;
1509;SDS011;746;48.688;9.428;2022-08-11T19:51:25;5.27;;;3.00;;
1509;SDS011;746;48.688;9.428;2022-08-11T19:55:04;2.53;;;2.33;;
1509;SDS011;746;48.688;9.428;2022-08-11T19:58:44;4.20;;;2.50;;
1509;SDS011;746;48.688;9.428;2022-08-11T20:02:22;6.00;;;2.97;;